Time;durP1;ratioP1;P1;durP2;ratioP2;P2;SDS_P1;SDS_P2;PMS_P1;PMS_P2;Temp;Humidity;BMP_temperature;BMP_pressure;BME280_temperature;BME280_humidity;BME280_pressure;Samples;Min_cycle;Max_cycle;Signal;HPM_P1;HPM_P2
2022/03/13 00:01:02;;;;;;;3.60;1.58;;;11.60;99.90;;;;;;5076492;28;20470;-67
2022/03/13 00:03:29;;;;;;;1.73;1.63;;;11.70;99.90;;;;;;5076618;28;20107;-66
2022/03/13 00:05:55;;;;;;;2.03;1.60;;;11.60;99.90;;;;;;5076510;28;20379;-66
2022/03/13 00:08:29;;;;;;;2.00;1.48;;;11.60;99.90;;;;;;5076563;28;20047;-66
2022/03/13 00:11:18;;;;;;;2.28;1.60;;;11.60;99.90;;;;;;5076558;28;20048;-66
2022/03/13 00:13:53;;;;;;;1.85;1.50;;;11.60;99.90;;;;;;5080088;28;20304;-66
2022/03/13 00:16:20;;;;;;;3.05;1.70;;;11.60;99.90;;;;;;5080496;28;20242;-68
2022/03/13 00:18:47;;;;;;;1.60;1.50;;;11.60;99.90;;;;;;5080438;28;20058;-67
2022/03/13 00:21:15;;;;;;;1.75;1.30;;;11.50;99.90;;;;;;5080891;28;20037;-67
2022/03/13 00:23:42;;;;;;;2.35;1.50;;;11.40;99.90;;;;;;5080311;28;20028;-67
2022/03/13 00:26:08;;;;;;;1.77;1.52;;;11.40;99.90;;;;;;5079780;28;20063;-67
2022/03/13 00:28:36;;;;;;;3.17;1.73;;;11.40;99.90;;;;;;5079469;28;20028;-67
2022/03/13 00:31:02;;;;;;;4.28;1.80;;;11.40;99.90;;;;;;5080255;28;20036;-65
2022/03/13 00:33:28;;;;;;;4.28;1.63;;;11.30;99.90;;;;;;5080162;28;20115;-66
2022/03/13 00:35:53;;;;;;;2.03;1.67;;;11.40;99.90;;;;;;5079406;28;20120;-67
2022/03/13 00:38:19;;;;;;;7.28;1.90;;;11.30;99.90;;;;;;5079825;28;20407;-66
2022/03/13 00:40:51;;;;;;;2.25;1.67;;;11.30;99.90;;;;;;5080470;28;20057;-66
2022/03/13 00:43:23;;;;;;;2.42;1.90;;;11.30;99.90;;;;;;5079536;28;20032;-65
2022/03/13 00:45:49;;;;;;;2.70;1.80;;;11.20;99.90;;;;;;5080539;28;20047;-67
2022/03/13 00:48:16;;;;;;;2.38;2.17;;;11.20;99.90;;;;;;5079248;28;20052;-66
2022/03/13 00:50:43;;;;;;;2.45;1.73;;;11.20;99.90;;;;;;5079865;28;20028;-66
2022/03/13 00:53:09;;;;;;;1.58;1.48;;;11.20;99.90;;;;;;5079977;28;20040;-65
2022/03/13 00:55:35;;;;;;;2.72;2.03;;;11.20;99.90;;;;;;5062253;28;20082;-66
2022/03/13 00:58:01;;;;;;;2.15;1.88;;;11.20;99.90;;;;;;5078976;28;20028;-64
2022/03/13 01:00:26;;;;;;;2.88;1.85;;;11.20;99.90;;;;;;5079651;28;20047;-67
2022/03/13 01:02:52;;;;;;;3.03;2.10;;;11.10;99.90;;;;;;5062259;28;20419;-67
2022/03/13 01:05:23;;;;;;;2.20;2.00;;;11.10;99.90;;;;;;5078807;28;20312;-67
2022/03/13 01:07:59;;;;;;;2.53;1.90;;;11.10;99.90;;;;;;5079691;28;20304;-66
2022/03/13 01:10:25;;;;;;;2.22;2.03;;;11.10;99.90;;;;;;5079414;28;20343;-66
2022/03/13 01:12:52;;;;;;;2.30;1.80;;;11.10;99.90;;;;;;5078784;28;20124;-67
2022/03/13 01:15:19;;;;;;;2.70;1.80;;;11.10;99.90;;;;;;5079465;28;20039;-65
2022/03/13 01:17:49;;;;;;;2.95;1.88;;;11.10;99.90;;;;;;5078635;28;20021;-66
2022/03/13 01:20:22;;;;;;;2.42;2.03;;;11.00;99.90;;;;;;5079637;28;20277;-67
2022/03/13 01:22:49;;;;;;;2.70;1.85;;;11.00;99.90;;;;;;5078544;28;20033;-66
2022/03/13 01:25:15;;;;;;;2.00;1.70;;;11.00;99.90;;;;;;5078432;28;20111;-66
2022/03/13 01:27:41;;;;;;;2.20;1.88;;;11.00;99.90;;;;;;5079157;28;20111;-66
2022/03/13 01:30:08;;;;;;;2.00;1.75;;;11.00;99.90;;;;;;5079254;28;20025;-67
2022/03/13 01:32:35;;;;;;;2.53;1.92;;;11.00;99.90;;;;;;5079562;28;20033;-66
2022/03/13 01:35:02;;;;;;;3.30;2.10;;;11.00;99.90;;;;;;5079249;28;20347;-66
2022/03/13 01:37:30;;;;;;;2.97;2.10;;;11.00;99.90;;;;;;5079158;28;20033;-67
2022/03/13 01:39:58;;;;;;;2.30;2.10;;;11.10;99.90;;;;;;5078111;28;20059;-66
2022/03/13 01:42:25;;;;;;;2.30;1.88;;;11.00;99.90;;;;;;5078235;28;20040;-67
2022/03/13 01:44:51;;;;;;;3.13;2.10;;;11.10;99.90;;;;;;5079007;28;20277;-67
2022/03/13 01:47:19;;;;;;;3.15;2.33;;;11.10;99.90;;;;;;5078202;28;20415;-66
2022/03/13 01:49:47;;;;;;;2.75;2.10;;;11.10;99.90;;;;;;5061319;28;20029;-66
2022/03/13 01:52:15;;;;;;;2.97;1.92;;;11.10;99.90;;;;;;5078092;28;20093;-66
2022/03/13 01:54:44;;;;;;;3.33;2.10;;;11.10;99.90;;;;;;5078750;28;20020;-66
2022/03/13 01:57:15;;;;;;;3.40;2.25;;;11.10;99.90;;;;;;5077950;28;20162;-66
2022/03/13 01:59:41;;;;;;;2.20;1.77;;;11.10;99.90;;;;;;5078714;28;20292;-66
2022/03/13 02:02:07;;;;;;;2.35;2.03;;;11.10;99.90;;;;;;5077802;28;20025;-66
2022/03/13 02:04:33;;;;;;;3.53;2.50;;;11.10;99.90;;;;;;5078474;28;20033;-66
2022/03/13 02:06:58;;;;;;;3.78;2.40;;;11.00;99.90;;;;;;5078579;28;20032;-66
2022/03/13 02:09:26;;;;;;;2.72;2.17;;;11.10;99.90;;;;;;5078434;28;20473;-65
2022/03/13 02:11:53;;;;;;;3.08;2.28;;;11.10;99.90;;;;;;5078483;28;20116;-67
2022/03/13 02:14:21;;;;;;;3.00;2.53;;;11.00;99.90;;;;;;5078324;28;20121;-66
2022/03/13 02:16:48;;;;;;;2.97;2.28;;;11.00;99.90;;;;;;5077652;28;20031;-66
2022/03/13 02:19:16;;;;;;;2.90;2.33;;;11.10;99.90;;;;;;5078295;28;20119;-67
2022/03/13 02:21:44;;;;;;;3.85;2.50;;;11.10;99.90;;;;;;5077428;28;20040;-66
2022/03/13 02:24:13;;;;;;;3.05;2.35;;;11.10;99.90;;;;;;5078142;28;20446;-66
2022/03/13 02:26:42;;;;;;;2.58;2.38;;;11.10;99.90;;;;;;5077304;28;20029;-65
2022/03/13 02:29:11;;;;;;;4.80;3.10;;;11.20;99.90;;;;;;5078023;28;20027;-64
2022/03/13 02:31:38;;;;;;;2.78;2.45;;;11.20;99.90;;;;;;5077348;28;20102;-67
2022/03/13 02:34:11;;;;;;;3.13;2.53;;;11.10;99.90;;;;;;5077912;28;20024;-67
2022/03/13 02:36:37;;;;;;;4.15;2.63;;;11.20;99.90;;;;;;5078141;28;20040;-67
2022/03/13 02:39:05;;;;;;;3.53;2.78;;;11.20;99.90;;;;;;5077784;28;20041;-68
2022/03/13 02:41:32;;;;;;;4.28;2.88;;;11.20;99.90;;;;;;5077744;28;20300;-66
2022/03/13 02:44:02;;;;;;;3.53;2.70;;;11.20;99.90;;;;;;5077761;28;20286;-67
2022/03/13 02:46:46;;;;;;;3.58;2.72;;;11.10;99.90;;;;;;5077040;28;20028;-67
2022/03/13 02:49:16;;;;;;;2.88;2.58;;;11.10;99.90;;;;;;5077569;28;20044;-67
2022/03/13 02:51:43;;;;;;;3.63;2.95;;;11.20;99.90;;;;;;5078138;28;20040;-66
2022/03/13 02:54:11;;;;;;;3.13;2.47;;;11.20;99.90;;;;;;5076839;28;20277;-67
2022/03/13 02:56:37;;;;;;;3.03;2.53;;;11.10;99.90;;;;;;5077604;28;20040;-67
2022/03/13 02:59:03;;;;;;;3.33;2.58;;;11.10;99.90;;;;;;5043632;28;20036;-67
2022/03/13 03:01:29;;;;;;;3.28;2.60;;;11.10;99.90;;;;;;5059920;28;20047;-66
2022/03/13 03:04:00;;;;;;;3.20;2.40;;;11.00;99.90;;;;;;5060273;28;20324;-66
2022/03/13 03:06:29;;;;;;;2.28;2.08;;;11.10;99.90;;;;;;5076719;28;20297;-66
2022/03/13 03:08:55;;;;;;;2.70;2.42;;;11.00;99.90;;;;;;5077378;28;20043;-66
2022/03/13 03:11:21;;;;;;;2.88;2.58;;;11.10;99.90;;;;;;5077296;28;20036;-66
2022/03/13 03:13:47;;;;;;;3.58;2.28;;;11.20;99.90;;;;;;5077114;28;20125;-66
2022/03/13 03:16:13;;;;;;;3.03;2.35;;;11.20;99.90;;;;;;5059768;28;20415;-66
2022/03/13 03:18:39;;;;;;;2.55;2.35;;;11.20;99.90;;;;;;5059805;28;20055;-66
2022/03/13 03:21:05;;;;;;;3.55;2.20;;;11.20;99.90;;;;;;5077041;28;20401;-66
2022/03/13 03:23:31;;;;;;;2.63;2.30;;;11.20;99.90;;;;;;5077026;28;20100;-67
2022/03/13 03:25:57;;;;;;;4.82;2.50;;;11.20;99.90;;;;;;5076926;28;20040;-66
2022/03/13 03:28:23;;;;;;;3.45;2.83;;;11.10;99.90;;;;;;5076576;28;20292;-66
2022/03/13 03:30:49;;;;;;;3.05;2.65;;;11.10;99.90;;;;;;5076249;28;20040;-67
2022/03/13 03:33:15;;;;;;;3.95;2.70;;;11.20;99.90;;;;;;5059490;28;20044;-67
2022/03/13 03:35:41;;;;;;;3.20;2.72;;;11.20;99.90;;;;;;5059601;28;20028;-65
2022/03/13 03:38:07;;;;;;;3.50;2.83;;;11.10;99.90;;;;;;5077034;28;20366;-66
2022/03/13 03:40:34;;;;;;;3.17;2.60;;;11.00;99.90;;;;;;5076826;28;20153;-66
2022/03/13 03:43:05;;;;;;;3.03;2.70;;;11.00;99.90;;;;;;5076810;28;20342;-66
2022/03/13 03:45:31;;;;;;;3.58;2.70;;;11.00;99.90;;;;;;5077267;28;20021;-66
2022/03/13 03:47:59;;;;;;;3.42;2.90;;;11.00;99.90;;;;;;5075470;28;20059;-67
2022/03/13 03:50:27;;;;;;;3.38;3.08;;;11.10;99.90;;;;;;5076801;28;20056;-66
2022/03/13 03:52:55;;;;;;;4.03;3.13;;;11.20;99.90;;;;;;5075951;28;20043;-66
2022/03/13 03:55:22;;;;;;;3.88;3.30;;;11.10;99.90;;;;;;5076745;28;20067;-67
2022/03/13 03:57:51;;;;;;;3.20;2.90;;;11.30;99.90;;;;;;5059473;28;20264;-67
2022/03/13 04:00:18;;;;;;;3.50;3.20;;;11.30;99.90;;;;;;5076551;28;20261;-65
2022/03/13 04:02:44;;;;;;;4.30;3.10;;;11.30;99.90;;;;;;5076601;28;20028;-66
2022/03/13 04:05:11;;;;;;;3.45;3.15;;;11.30;99.90;;;;;;5076636;28;20230;-66
2022/03/13 04:07:38;;;;;;;4.47;3.53;;;11.30;99.90;;;;;;5075756;28;20036;-66
2022/03/13 04:10:06;;;;;;;3.40;3.08;;;11.40;99.90;;;;;;5077180;28;20051;-66
2022/03/13 04:12:34;;;;;;;4.05;3.40;;;11.40;99.90;;;;;;5076439;28;20335;-66
2022/03/13 04:15:01;;;;;;;3.17;2.88;;;11.40;99.90;;;;;;5076508;28;20040;-66
2022/03/13 04:17:28;;;;;;;3.90;3.33;;;11.30;99.90;;;;;;5076600;28;20020;-66
2022/03/13 04:19:54;;;;;;;4.03;3.00;;;11.30;99.90;;;;;;5076378;28;20128;-66
2022/03/13 04:22:20;;;;;;;3.50;3.20;;;11.20;99.90;;;;;;5076512;28;20036;-66
2022/03/13 04:24:46;;;;;;;4.20;3.10;;;11.20;99.90;;;;;;5076520;28;20032;-66
2022/03/13 04:27:13;;;;;;;3.60;3.30;;;11.10;99.90;;;;;;5076442;28;20067;-66
2022/03/13 04:29:41;;;;;;;3.13;2.85;;;11.10;99.90;;;;;;5075580;28;20043;-67
2022/03/13 04:32:08;;;;;;;3.55;3.22;;;11.10;99.90;;;;;;5076354;28;20306;-66
2022/03/13 04:34:35;;;;;;;3.65;3.22;;;11.00;99.90;;;;;;5076400;28;20043;-66
2022/03/13 04:37:02;;;;;;;3.85;3.30;;;10.90;99.90;;;;;;5075721;28;20376;-66
2022/03/13 04:39:35;;;;;;;4.50;3.70;;;11.00;99.90;;;;;;5076137;28;20060;-66
2022/03/13 04:42:05;;;;;;;;;;;11.00;99.90;;;;;;5076726;28;20064;-66
2022/03/13 04:44:32;;;;;;;4.93;3.53;;;11.10;99.90;;;;;;5076281;28;19916;-66
2022/03/13 04:46:58;;;;;;;4.82;3.60;;;11.20;99.90;;;;;;5058832;28;20090;-66
2022/03/13 04:49:24;;;;;;;4.20;3.50;;;11.20;99.90;;;;;;5075497;28;20033;-66
2022/03/13 04:51:50;;;;;;;4.22;3.58;;;11.20;99.90;;;;;;5076284;28;20457;-66
2022/03/13 04:54:17;;;;;;;4.82;3.85;;;11.30;99.90;;;;;;5075513;28;20052;-66
2022/03/13 04:56:44;;;;;;;4.05;3.60;;;11.10;99.90;;;;;;5075509;28;20040;-66
2022/03/13 04:59:10;;;;;;;4.07;3.67;;;11.10;99.90;;;;;;5076036;28;20142;-66
2022/03/13 05:01:36;;;;;;;4.85;4.20;;;11.10;99.90;;;;;;5079023;28;20081;-66
2022/03/13 05:04:02;;;;;;;4.00;3.60;;;10.90;99.90;;;;;;5079590;28;20041;-67
2022/03/13 05:06:28;;;;;;;5.18;4.18;;;10.80;99.90;;;;;;5078868;28;20025;-68
2022/03/13 05:08:55;;;;;;;6.07;3.97;;;10.70;99.90;;;;;;5062437;28;20029;-66
2022/03/13 05:11:21;;;;;;;4.72;4.20;;;10.70;99.90;;;;;;5078929;28;20128;-67
2022/03/13 05:13:47;;;;;;;5.68;4.47;;;10.70;99.90;;;;;;5078692;28;20036;-67
2022/03/13 05:16:13;;;;;;;5.35;4.55;;;10.70;99.90;;;;;;5078690;28;20047;-67
2022/03/13 05:18:39;;;;;;;5.35;4.65;;;10.80;99.90;;;;;;5061848;28;20055;-67
2022/03/13 05:21:04;;;;;;;5.00;4.50;;;10.70;99.90;;;;;;5079379;28;20307;-67
2022/03/13 05:23:30;;;;;;;5.50;4.65;;;10.60;99.90;;;;;;5061811;28;20036;-66
2022/03/13 05:25:56;;;;;;;4.95;4.38;;;10.60;99.90;;;;;;5079054;28;20060;-67
2022/03/13 05:28:22;;;;;;;5.88;4.90;;;10.40;99.90;;;;;;5061849;28;20048;-67
2022/03/13 05:30:48;;;;;;;7.03;4.90;;;10.40;99.90;;;;;;5079303;28;20043;-67
2022/03/13 05:33:13;;;;;;;6.40;5.13;;;10.50;99.90;;;;;;5079137;28;20071;-67
2022/03/13 05:35:41;;;;;;;7.63;5.32;;;10.50;99.90;;;;;;5078435;28;20365;-67
2022/03/13 05:38:07;;;;;;;8.40;5.53;;;10.40;99.90;;;;;;5078155;28;20036;-67
2022/03/13 05:40:35;;;;;;;6.95;5.28;;;10.50;99.90;;;;;;5045049;28;20036;-67
2022/03/13 05:43:03;;;;;;;8.73;5.90;;;10.50;99.90;;;;;;5078316;28;20028;-66
2022/03/13 05:45:30;;;;;;;9.00;5.60;;;10.40;99.90;;;;;;5078194;28;20043;-66
2022/03/13 05:48:15;;;;;;;6.55;5.65;;;10.40;99.90;;;;;;5078753;28;20313;-66
2022/03/13 05:50:41;;;;;;;8.07;5.95;;;10.30;99.90;;;;;;5078876;28;20055;-67
2022/03/13 05:53:10;;;;;;;8.15;6.47;;;10.20;99.90;;;;;;5078005;28;20029;-67
2022/03/13 05:55:39;;;;;;;9.38;6.95;;;10.20;99.90;;;;;;5061826;28;20109;-67
2022/03/13 05:58:05;;;;;;;7.53;6.18;;;10.10;99.90;;;;;;5078002;28;20028;-67
2022/03/13 06:00:32;;;;;;;9.02;7.18;;;10.00;99.90;;;;;;5077870;28;20040;-67
2022/03/13 06:02:59;;;;;;;8.50;6.18;;;10.10;99.90;;;;;;5077809;28;20039;-67
2022/03/13 06:05:26;;;;;;;9.45;7.25;;;10.00;99.90;;;;;;5077832;28;20032;-67
2022/03/13 06:07:52;;;;;;;9.48;7.57;;;10.00;99.90;;;;;;5077853;28;20032;-67
2022/03/13 06:10:18;;;;;;;8.75;7.20;;;9.90;99.90;;;;;;5078063;28;20369;-67
2022/03/13 06:12:44;;;;;;;9.90;7.55;;;9.90;99.90;;;;;;5078372;28;20097;-67
2022/03/13 06:15:11;;;;;;;12.18;8.35;;;9.90;99.90;;;;;;5078338;28;20404;-68
2022/03/13 06:17:46;;;;;;;10.95;7.97;;;9.90;99.90;;;;;;5078283;28;20161;-67
2022/03/13 06:20:13;;;;;;;10.20;8.57;;;9.80;99.90;;;;;;5077471;28;20284;-67
2022/03/13 06:22:42;;;;;;;10.32;8.35;;;9.80;99.90;;;;;;5078210;28;20081;-67
2022/03/13 06:25:10;;;;;;;10.88;8.60;;;9.90;99.90;;;;;;5077355;28;20302;-66
2022/03/13 06:27:36;;;;;;;11.40;8.60;;;9.90;99.90;;;;;;5078050;28;20025;-67
2022/03/13 06:30:13;;;;;;;10.73;8.07;;;9.80;99.90;;;;;;5077801;28;20033;-67
2022/03/13 06:32:51;;;;;;;11.38;8.65;;;9.80;99.90;;;;;;5077900;28;20090;-67
2022/03/13 06:35:19;;;;;;;10.43;8.00;;;9.80;99.90;;;;;;5077960;28;20036;-67
2022/03/13 06:37:49;;;;;;;10.77;7.88;;;9.70;99.90;;;;;;5077870;28;20028;-67
2022/03/13 06:40:19;;;;;;;11.43;8.32;;;9.70;99.90;;;;;;5077763;28;20040;-67
2022/03/13 06:42:47;;;;;;;11.25;8.32;;;9.70;99.90;;;;;;5076978;28;20029;-67
2022/03/13 06:45:14;;;;;;;9.73;7.90;;;9.70;99.90;;;;;;5077146;28;20490;-67
2022/03/13 06:47:44;;;;;;;10.93;8.07;;;9.60;99.90;;;;;;5076939;28;20025;-67
2022/03/13 06:50:10;;;;;;;10.32;8.13;;;9.60;99.90;;;;;;5076908;28;20058;-67
2022/03/13 06:52:37;;;;;;;10.93;7.93;;;9.60;99.90;;;;;;5076757;28;20033;-67
2022/03/13 06:55:04;;;;;;;11.30;8.48;;;9.60;99.90;;;;;;5076787;28;20033;-67
2022/03/13 06:57:29;;;;;;;11.30;8.48;;;9.70;99.90;;;;;;5076690;28;20441;-66
2022/03/13 06:59:57;;;;;;;12.52;9.32;;;9.80;99.90;;;;;;5076560;28;20044;-66
2022/03/13 07:02:23;;;;;;;12.48;9.13;;;9.80;99.90;;;;;;5076539;28;20032;-66
2022/03/13 07:04:49;;;;;;;12.95;8.38;;;9.70;99.90;;;;;;5077223;28;20037;-65
2022/03/13 07:07:15;;;;;;;11.88;8.90;;;9.70;99.90;;;;;;5077222;28;20392;-66
2022/03/13 07:09:41;;;;;;;13.05;8.77;;;9.70;99.90;;;;;;5060416;28;20048;-66
2022/03/13 07:12:11;;;;;;;13.60;9.90;;;9.80;99.90;;;;;;5059930;28;20103;-66
2022/03/13 07:14:41;;;;;;;13.02;9.30;;;9.80;99.90;;;;;;5077608;28;20124;-64
2022/03/13 07:17:07;;;;;;;15.02;9.63;;;9.80;99.90;;;;;;5060147;28;20047;-66
2022/03/13 07:19:34;;;;;;;12.32;9.32;;;9.70;99.90;;;;;;5077016;28;20284;-66
2022/03/13 07:22:00;;;;;;;13.63;9.85;;;9.80;99.90;;;;;;5076404;28;20040;-63
2022/03/13 07:24:25;;;;;;;14.60;9.88;;;9.80;99.90;;;;;;5059576;28;20111;-66
2022/03/13 07:26:51;;;;;;;14.07;9.93;;;9.80;99.90;;;;;;5059513;28;20028;-65
2022/03/13 07:29:17;;;;;;;13.38;9.70;;;9.90;99.90;;;;;;5076889;28;20384;-65
2022/03/13 07:31:43;;;;;;;13.15;9.77;;;9.90;99.90;;;;;;5076050;28;20192;-66
2022/03/13 07:34:09;;;;;;;14.40;9.65;;;10.00;99.90;;;;;;5076906;28;20350;-65
2022/03/13 07:36:39;;;;;;;16.85;11.15;;;10.10;99.90;;;;;;5076164;28;20120;-65
2022/03/13 07:39:05;;;;;;;19.75;12.05;;;10.10;99.90;;;;;;5075968;28;20312;-65
2022/03/13 07:41:33;;;;;;;16.65;11.35;;;10.30;99.90;;;;;;5076556;28;20101;-64
2022/03/13 07:43:58;;;;;;;15.32;11.55;;;10.40;99.90;;;;;;5076032;28;20044;-63
2022/03/13 07:46:24;;;;;;;15.60;11.75;;;10.40;99.90;;;;;;5075948;28;20025;-65
2022/03/13 07:48:50;;;;;;;15.65;11.45;;;10.60;99.90;;;;;;5075867;28;20135;-63
2022/03/13 07:51:17;;;;;;;17.75;11.85;;;10.70;99.90;;;;;;5076490;28;20123;-63
2022/03/13 07:53:43;;;;;;;16.65;12.15;;;10.80;99.90;;;;;;5075732;28;20040;-65
2022/03/13 07:56:09;;;;;;;17.52;13.20;;;10.80;99.90;;;;;;5075734;28;20106;-66
2022/03/13 07:58:35;;;;;;;19.17;12.45;;;10.80;99.90;;;;;;5076757;28;20404;-65
2022/03/13 08:01:01;;;;;;;17.35;13.27;;;10.80;99.90;;;;;;5059480;28;20043;-65
2022/03/13 08:03:29;;;;;;;17.52;12.82;;;10.80;99.90;;;;;;5075697;28;20430;-67
2022/03/13 08:05:56;;;;;;;20.23;12.50;;;10.80;99.90;;;;;;5075718;28;20040;-66
2022/03/13 08:08:21;;;;;;;20.08;13.65;;;10.80;99.90;;;;;;5075603;28;20012;-66
2022/03/13 08:10:47;;;;;;;18.70;13.43;;;10.90;99.90;;;;;;5076344;28;20396;-67
2022/03/13 08:13:13;;;;;;;17.92;12.73;;;10.90;99.90;;;;;;5075664;28;20304;-66
2022/03/13 08:15:39;;;;;;;18.10;13.20;;;11.00;99.90;;;;;;5075635;28;20100;-67
2022/03/13 08:18:05;;;;;;;17.77;12.63;;;11.10;99.90;;;;;;5075714;28;20032;-66
2022/03/13 08:20:31;;;;;;;19.17;12.68;;;11.00;99.90;;;;;;5076665;28;20029;-66
2022/03/13 08:22:57;;;;;;;18.15;12.73;;;11.00;99.90;;;;;;5075773;28;20036;-66
2022/03/13 08:25:24;;;;;;;16.90;12.57;;;11.10;99.90;;;;;;5076729;28;20194;-65
2022/03/13 08:27:50;;;;;;;17.70;12.88;;;11.20;99.90;;;;;;5076345;28;20055;-65
2022/03/13 08:30:16;;;;;;;20.70;12.52;;;11.30;99.90;;;;;;5076312;28;20028;-66
2022/03/13 08:32:42;;;;;;;17.17;12.25;;;11.30;99.90;;;;;;5075330;28;20086;-66
2022/03/13 08:35:09;;;;;;;15.88;11.93;;;11.30;99.90;;;;;;5079220;28;20032;-65
2022/03/13 08:37:36;;;;;;;15.45;10.95;;;11.40;99.90;;;;;;5080025;28;20032;-67
2022/03/13 08:40:04;;;;;;;16.45;11.50;;;11.50;99.90;;;;;;5079141;28;20052;-66
2022/03/13 08:42:33;;;;;;;19.65;12.15;;;11.60;99.90;;;;;;5079112;28;20028;-66
2022/03/13 08:44:59;;;;;;;15.65;11.10;;;11.60;99.90;;;;;;5079782;28;20039;-66
2022/03/13 08:47:26;;;;;;;13.40;10.27;;;11.70;99.90;;;;;;5079872;28;20021;-67
2022/03/13 08:49:52;;;;;;;14.48;10.88;;;11.80;99.90;;;;;;5080000;28;20404;-66
2022/03/13 08:52:18;;;;;;;14.57;10.82;;;11.80;99.90;;;;;;5079957;28;20089;-66
2022/03/13 08:54:44;;;;;;;13.02;9.90;;;11.80;99.90;;;;;;5079111;28;20036;-67
2022/03/13 08:57:12;;;;;;;16.13;10.50;;;12.00;99.90;;;;;;5079108;28;20028;-67
2022/03/13 08:59:38;;;;;;;13.95;10.63;;;12.10;99.90;;;;;;5079740;28;20534;-66
2022/03/13 09:02:05;;;;;;;14.23;9.90;;;12.20;99.90;;;;;;5062306;28;20036;-67
2022/03/13 09:04:32;;;;;;;12.77;9.45;;;12.20;99.90;;;;;;5079049;28;20112;-66
2022/03/13 09:06:58;;;;;;;14.68;9.13;;;12.30;99.90;;;;;;5079315;28;20028;-65
2022/03/13 09:09:24;;;;;;;10.57;8.27;;;12.30;99.90;;;;;;5079654;28;20040;-66
2022/03/13 09:11:53;;;;;;;12.73;8.77;;;12.10;99.90;;;;;;5079585;28;20054;-68
2022/03/13 09:14:19;;;;;;;11.05;8.60;;;12.20;99.90;;;;;;5079527;28;20028;-67
2022/03/13 09:16:46;;;;;;;11.15;8.38;;;12.30;99.90;;;;;;5079465;28;20305;-65
2022/03/13 09:19:12;;;;;;;12.18;8.82;;;12.30;99.90;;;;;;5079710;28;20414;-68
2022/03/13 09:21:39;;;;;;;11.18;8.00;;;12.30;99.90;;;;;;5078659;28;20037;-67
2022/03/13 09:24:10;;;;;;;11.45;7.78;;;12.40;99.90;;;;;;5079443;28;20029;-65
2022/03/13 09:26:40;;;;;;;9.85;7.95;;;12.60;99.90;;;;;;5079223;28;20103;-65
2022/03/13 09:29:07;;;;;;;10.30;8.07;;;12.60;99.90;;;;;;5078463;28;20032;-65
2022/03/13 09:31:34;;;;;;;10.48;7.93;;;12.70;99.90;;;;;;5079217;28;20303;-67
2022/03/13 09:34:00;;;;;;;13.68;8.55;;;12.70;99.90;;;;;;5078983;28;20032;-65
2022/03/13 09:36:26;;;;;;;10.40;7.70;;;12.70;99.90;;;;;;5078495;28;20351;-66
2022/03/13 09:38:52;;;;;;;10.50;7.70;;;12.70;99.90;;;;;;5078062;28;20049;-67
2022/03/13 09:41:18;;;;;;;10.52;8.43;;;12.80;99.90;;;;;;5078897;28;20047;-64
2022/03/13 09:43:44;;;;;;;10.77;7.72;;;12.90;99.90;;;;;;5078250;28;20020;-64
2022/03/13 09:46:11;;;;;;;10.98;7.90;;;13.00;99.90;;;;;;5077401;28;20035;-65
2022/03/13 09:48:37;;;;;;;9.98;7.07;;;13.10;99.90;;;;;;5078896;28;20384;-65
2022/03/13 09:51:04;;;;;;;9.82;7.25;;;13.10;99.90;;;;;;5078809;28;20181;-66
2022/03/13 09:53:31;;;;;;;10.00;7.18;;;13.30;99.90;;;;;;5079160;28;20083;-66
2022/03/13 09:55:57;;;;;;;9.70;7.30;;;13.30;99.90;;;;;;5077908;28;20025;-63
2022/03/13 09:58:23;;;;;;;10.23;7.20;;;13.40;99.90;;;;;;5078206;28;20045;-65
2022/03/13 10:00:48;;;;;;;8.57;6.72;;;13.50;99.90;;;;;;5078467;28;20063;-64
2022/03/13 10:03:14;;;;;;;8.98;6.82;;;13.70;99.90;;;;;;5060949;28;20119;-67
2022/03/13 10:05:45;;;;;;;9.18;6.78;;;13.80;99.90;;;;;;5077662;28;20082;-70
2022/03/13 10:08:12;;;;;;;9.98;7.30;;;13.80;99.90;;;;;;5078433;28;20120;-66
2022/03/13 10:10:45;;;;;;;9.38;6.22;;;13.50;99.90;;;;;;5078505;28;20032;-66
2022/03/13 10:13:14;;;;;;;7.22;6.15;;;13.40;99.90;;;;;;5078019;28;20071;-65
2022/03/13 10:15:47;;;;;;;8.27;5.97;;;13.50;99.90;;;;;;5077536;28;20124;-66
2022/03/13 10:18:19;;;;;;;8.65;6.10;;;13.70;99.90;;;;;;5060787;28;20323;-66
2022/03/13 10:20:46;;;;;;;7.80;5.57;;;13.70;99.90;;;;;;5077417;28;20067;-65
2022/03/13 10:23:16;;;;;;;7.05;5.70;;;13.80;99.90;;;;;;5077371;28;20025;-65
2022/03/13 10:25:43;;;;;;;10.25;6.03;;;14.00;99.90;;;;;;5078550;28;20039;-64
2022/03/13 10:28:15;;;;;;;6.50;5.53;;;14.20;99.90;;;;;;5078129;28;20073;-66
2022/03/13 10:30:41;;;;;;;6.28;5.38;;;14.30;99.90;;;;;;5078160;28;20035;-66
2022/03/13 10:33:08;;;;;;;6.38;5.45;;;14.70;99.90;;;;;;5077330;28;20384;-66
2022/03/13 10:35:38;;;;;;;7.28;5.65;;;15.00;99.90;;;;;;5077246;28;20396;-65
2022/03/13 10:38:18;;;;;;;6.35;5.03;;;15.10;99.90;;;;;;5044085;28;20307;-66
2022/03/13 10:40:50;;;;;;;;;;;15.20;99.90;;;;;;5078238;28;20093;-64
2022/03/13 10:43:20;;;;;;;6.57;4.90;;;14.90;99.90;;;;;;5077875;28;19944;-66
2022/03/13 10:45:53;;;;;;;5.78;4.90;;;15.10;99.90;;;;;;5078345;28;20024;-63
2022/03/13 10:48:23;;;;;;;5.75;4.20;;;15.80;99.90;;;;;;5077117;28;20032;-65
2022/03/13 10:50:53;;;;;;;6.03;4.47;;;16.10;99.90;;;;;;5077638;28;20024;-64
2022/03/13 10:53:21;;;;;;;4.70;4.18;;;16.60;99.90;;;;;;5077593;28;20040;-65
2022/03/13 10:56:06;;;;;;;4.82;4.05;;;17.30;99.90;;;;;;5077539;28;20056;-66
2022/03/13 10:58:35;;;;;;;5.80;4.60;;;17.60;99.90;;;;;;5076136;28;20024;-66
2022/03/13 11:01:10;;;;;;;5.30;4.10;;;17.60;99.90;;;;;;5076825;28;20451;-65
2022/03/13 11:03:48;;;;;;;5.10;4.30;;;17.50;99.90;;;;;;5077407;28;20253;-66
2022/03/13 11:06:14;;;;;;;3.70;3.30;;;18.20;99.90;;;;;;5077428;28;20036;-65
2022/03/13 11:08:41;;;;;;;4.53;3.20;;;19.00;99.90;;;;;;5076594;28;20028;-68
2022/03/13 11:11:15;;;;;;;4.18;3.78;;;19.50;99.90;;;;;;5060157;28;20040;-67
2022/03/13 11:13:42;;;;;;;5.25;3.83;;;18.70;99.90;;;;;;5077437;28;20054;-66
2022/03/13 11:16:11;;;;;;;3.70;3.30;;;18.20;99.90;;;;;;5060009;28;20028;-63
2022/03/13 11:18:38;;;;;;;3.78;2.92;;;18.10;99.90;;;;;;5076409;28;20044;-65
2022/03/13 11:21:07;;;;;;;3.97;3.20;;;17.90;99.90;;;;;;5076325;28;20032;-66
2022/03/13 11:23:36;;;;;;;4.85;3.53;;;18.30;99.90;;;;;;5076252;28;20032;-65
2022/03/13 11:26:04;;;;;;;4.07;3.67;;;18.20;99.90;;;;;;5076336;28;20031;-64
2022/03/13 11:28:31;;;;;;;3.47;3.17;;;18.70;99.90;;;;;;5077045;28;20044;-66
2022/03/13 11:30:58;;;;;;;5.18;3.78;;;19.30;99.90;;;;;;5077068;28;20039;-65
2022/03/13 11:33:36;;;;;;;3.90;3.50;;;19.60;99.90;;;;;;5043087;28;20035;-64
2022/03/13 11:36:31;;;;;;;3.80;3.47;;;19.70;99.90;;;;;;5059613;28;20028;-64
2022/03/13 11:39:03;;;;;;;3.28;2.97;;;20.40;99.90;;;;;;5076832;28;20357;-64
2022/03/13 11:41:47;;;;;;;4.32;3.38;;;20.30;99.90;;;;;;5076844;28;20043;-66
2022/03/13 11:44:30;;;;;;;3.40;3.05;;;19.30;99.90;;;;;;5076295;28;20394;-67
2022/03/13 11:46:57;;;;;;;;;;;19.40;99.90;;;;;;5076534;28;20277;-66
2022/03/13 11:49:43;;;;;;;4.35;2.90;;;18.70;99.90;;;;;;5076795;28;20003;-66
2022/03/13 11:52:12;;;;;;;2.78;2.53;;;18.60;99.90;;;;;;5076110;28;20036;-68
2022/03/13 11:54:55;;;;;;;3.35;3.05;;;18.70;99.90;;;;;;5076727;28;20033;-64
2022/03/13 11:57:44;;;;;;;4.10;3.40;;;18.40;99.90;;;;;;5059292;28;20035;-67
2022/03/13 12:00:13;;;;;;;3.40;3.00;;;18.00;99.90;;;;;;5076575;28;20033;-67
2022/03/13 12:02:49;;;;;;;4.15;3.13;;;18.50;99.90;;;;;;5076807;28;20069;-69
2022/03/13 12:05:28;;;;;;;3.40;3.10;;;18.90;99.90;;;;;;5059448;28;20029;-67
2022/03/13 12:07:56;;;;;;;3.42;3.13;;;18.70;99.90;;;;;;5076373;28;20032;-65
2022/03/13 12:10:42;;;;;;;3.20;2.90;;;19.30;99.90;;;;;;5080315;28;20025;-65
2022/03/13 12:13:13;;;;;;;3.30;3.00;;;19.30;99.90;;;;;;5047586;28;20050;-66
2022/03/13 12:15:41;;;;;;;3.42;3.08;;;19.10;99.90;;;;;;5080066;28;20047;-66
2022/03/13 12:18:21;;;;;;;3.28;2.90;;;18.60;99.90;;;;;;5063760;28;20032;-67
2022/03/13 12:20:49;;;;;;;4.25;3.00;;;18.70;99.90;;;;;;5080653;28;20036;-67
2022/03/13 12:23:33;;;;;;;3.42;3.00;;;18.50;99.90;;;;;;5079863;28;20094;-66
2022/03/13 12:26:22;;;;;;;3.10;2.80;;;18.70;99.90;;;;;;5079828;28;20021;-65
2022/03/13 12:28:57;;;;;;;3.25;2.90;;;19.20;99.90;;;;;;5080436;28;20050;-65
2022/03/13 12:31:25;;;;;;;2.88;2.58;;;19.40;99.90;;;;;;5080893;28;20036;-64
2022/03/13 12:33:53;;;;;;;2.70;2.50;;;19.30;99.90;;;;;;5080119;28;20021;-65
2022/03/13 12:36:20;;;;;;;2.90;2.60;;;19.40;99.90;;;;;;5079495;28;20033;-65
2022/03/13 12:38:53;;;;;;;3.28;2.97;;;19.70;99.90;;;;;;5079317;28;20362;-66
2022/03/13 12:41:21;;;;;;;2.90;2.60;;;19.10;99.90;;;;;;5079833;28;20321;-64
2022/03/13 12:43:58;;;;;;;2.88;2.10;;;19.00;99.90;;;;;;5063212;28;20308;-68
2022/03/13 12:46:28;;;;;;;2.53;2.22;;;19.40;99.90;;;;;;5080295;28;20035;-68
2022/03/13 12:48:59;;;;;;;2.80;2.10;;;18.70;99.90;;;;;;5062927;28;20064;-66
2022/03/13 12:51:44;;;;;;;3.28;1.90;;;18.60;99.90;;;;;;5079987;28;20032;-65